createdAt,value
2019-02-26T00:01:50.479Z,78.62
2019-02-26T00:11:53.423Z,79.17
2019-02-26T00:21:58.520Z,80.00
2019-02-26T00:32:03.734Z,80.93
2019-02-26T00:42:08.971Z,81.32
2019-02-26T00:52:15.607Z,81.46
2019-02-26T01:02:20.663Z,81.71
2019-02-26T01:12:25.689Z,82.26
2019-02-26T01:22:31.104Z,83.09
2019-02-26T01:32:37.489Z,83.09
2019-02-26T01:42:47.206Z,83.94
2019-02-26T01:52:50.040Z,84.44
2019-02-26T02:02:56.147Z,85.24
2019-02-26T02:13:02.837Z,85.52
2019-02-26T02:23:07.705Z,85.09
2019-02-26T02:33:17.200Z,84.64
2019-02-26T02:43:21.372Z,84.38
2019-02-26T02:53:27.424Z,84.34
2019-02-26T03:03:32.473Z,84.16
2019-02-26T03:13:40.342Z,84.10
2019-02-26T03:23:45.675Z,84.23
2019-02-26T03:33:50.914Z,84.35
2019-02-26T03:43:58.267Z,86.46
2019-02-26T03:54:02.745Z,86.46
2019-02-26T04:04:07.796Z,86.29
2019-02-26T04:14:17.376Z,85.76
2019-02-26T04:24:19.550Z,85.86
2019-02-26T04:34:27.647Z,85.93
2019-02-26T04:44:47.706Z,86.38
2019-02-26T04:54:51.577Z,86.52
2019-02-26T05:04:56.641Z,87.19
2019-02-26T05:15:01.771Z,87.06
2019-02-26T05:25:13.767Z,86.98
2019-02-26T05:35:18.071Z,86.43
2019-02-26T05:45:23.836Z,85.85
2019-02-26T05:55:29.598Z,85.73
2019-02-26T06:05:34.634Z,85.61
2019-02-26T06:15:39.800Z,85.88
2019-02-26T06:25:44.972Z,85.24
2019-02-26T06:35:50.433Z,84.66
2019-02-26T06:45:55.595Z,83.39
2019-02-26T06:56:01.264Z,81.99
2019-02-26T07:06:06.150Z,81.01
2019-02-26T07:16:11.212Z,79.70
2019-02-26T07:26:18.313Z,79.76
2019-02-26T07:36:25.798Z,79.06
2019-02-26T07:46:30.855Z,78.37
2019-02-26T07:56:36.213Z,78.05
2019-02-26T08:06:41.651Z,76.49
2019-02-26T08:16:49.240Z,74.86
2019-02-26T08:26:53.973Z,73.24
2019-02-26T08:36:59.424Z,70.94
2019-02-26T08:47:08.801Z,69.85
2019-02-26T08:57:12.606Z,68.72
2019-02-26T09:07:19.531Z,67.02
2019-02-26T09:17:26.728Z,64.18
2019-02-26T09:27:32.111Z,60.77
2019-02-26T09:37:38.480Z,61.22
2019-02-26T09:47:44.919Z,60.90
2019-02-26T09:57:50.674Z,57.84
2019-02-26T10:07:57.989Z,55.01
2019-02-26T10:18:04.886Z,57.08
2019-02-26T10:28:11.583Z,52.27
2019-02-26T10:38:16.954Z,50.11
2019-02-26T10:48:25.105Z,45.33
2019-02-26T10:58:29.032Z,43.37
2019-02-26T11:08:35.067Z,43.23
2019-02-26T11:18:42.529Z,44.75
2019-02-26T11:28:47.915Z,46.94
2019-02-26T11:38:53.439Z,45.09
2019-02-26T11:48:58.637Z,43.86
2019-02-26T11:59:06.610Z,42.32
2019-02-26T12:09:13.692Z,42.32
2019-02-26T12:19:18.104Z,42.76
2019-02-26T12:29:24.046Z,44.47
2019-02-26T12:39:31.378Z,44.62
2019-02-26T12:49:39.149Z,43.54
2019-02-26T12:59:43.621Z,43.48
2019-02-26T13:09:51.961Z,44.66
2019-02-26T13:19:58.867Z,45.20
2019-02-26T13:30:03.268Z,48.82
2019-02-26T13:40:18.399Z,47.82
2019-02-26T13:50:34.724Z,48.66
2019-02-26T14:00:39.767Z,50.11
2019-02-26T14:10:44.853Z,49.53
2019-02-26T14:20:50.050Z,49.89
2019-02-26T14:30:55.157Z,50.52
2019-02-26T14:41:02.440Z,51.07
2019-02-26T14:51:07.444Z,50.14
2019-02-26T15:01:12.834Z,44.37
2019-02-26T15:11:17.999Z,47.93
2019-02-26T15:21:23.699Z,49.98
2019-02-26T15:31:29.230Z,50.22
2019-02-26T15:41:34.615Z,50.40
2019-02-26T15:51:39.819Z,53.03
2019-02-26T16:01:45.006Z,53.83
2019-02-26T16:11:50.392Z,55.24
2019-02-26T16:21:55.920Z,56.76
2019-02-26T16:32:02.654Z,58.35
2019-02-26T16:42:11.367Z,59.61
2019-02-26T16:52:15.632Z,60.38
2019-02-26T17:02:21.106Z,60.60
2019-02-26T17:12:26.965Z,62.11
2019-02-26T17:22:33.864Z,63.39
2019-02-26T17:32:39.545Z,64.26
2019-02-26T17:42:45.219Z,64.07
2019-02-26T17:52:50.867Z,63.83
2019-02-26T18:02:56.286Z,63.89
2019-02-26T18:13:01.511Z,64.05
2019-02-26T18:23:07.159Z,64.60
2019-02-26T18:33:12.914Z,64.60
2019-02-26T18:43:18.408Z,65.33
2019-02-26T18:53:24.150Z,66.52
2019-02-26T19:03:29.883Z,66.86
2019-02-26T19:13:36.256Z,67.76
2019-02-26T19:23:41.923Z,68.68
2019-02-26T19:33:47.632Z,69.02
2019-02-26T19:43:53.313Z,69.59
2019-02-26T19:53:58.963Z,70.64
2019-02-26T20:04:05.474Z,70.91
2019-02-26T20:14:12.304Z,71.34
2019-02-26T20:24:18.439Z,71.98
2019-02-26T20:34:24.033Z,72.17
2019-02-26T20:44:29.540Z,72.10
2019-02-26T20:54:35.218Z,72.28
2019-02-26T21:04:40.709Z,73.41
2019-02-26T21:14:46.099Z,73.74
2019-02-26T21:24:52.723Z,74.23
2019-02-26T21:34:58.238Z,74.45
2019-02-26T21:45:03.729Z,74.46
2019-02-26T21:55:10.669Z,74.88
2019-02-26T22:05:16.916Z,74.93
2019-02-26T22:15:22.217Z,74.73
2019-02-26T22:25:29.250Z,75.47
2019-02-26T22:35:35.051Z,75.71
2019-02-26T22:45:40.359Z,76.24
2019-02-26T22:55:49.586Z,76.40
2019-02-26T23:05:52.514Z,77.65
2019-02-26T23:15:57.616Z,78.19
2019-02-26T23:26:03.102Z,78.37
2019-02-26T23:36:09.411Z,79.02
2019-02-26T23:46:14.319Z,80.17
2019-02-26T23:56:19.890Z,81.50
